createdAt,value
2018-06-08T00:00:59.847Z,0.00
2018-06-08T00:01:59.820Z,0.00
2018-06-08T00:02:59.805Z,0.00
2018-06-08T00:03:59.778Z,0.00
2018-06-08T00:04:59.749Z,0.00
2018-06-08T00:05:59.736Z,0.00
2018-06-08T00:06:59.703Z,0.00
2018-06-08T00:07:59.686Z,0.00
2018-06-08T00:08:59.662Z,0.00
2018-06-08T00:09:59.632Z,0.00
2018-06-08T00:10:59.608Z,0.00
2018-06-08T00:11:59.591Z,0.00
2018-06-08T00:12:59.562Z,0.00
2018-06-08T00:13:59.538Z,0.00
2018-06-08T00:14:59.521Z,0.00
2018-06-08T00:15:59.493Z,0.00
2018-06-08T00:16:59.472Z,0.00
2018-06-08T00:17:59.452Z,0.00
2018-06-08T00:18:59.419Z,0.00
2018-06-08T00:19:59.400Z,0.00
2018-06-08T00:20:59.375Z,0.00
2018-06-08T00:21:59.348Z,0.00
2018-06-08T00:22:59.332Z,0.00
2018-06-08T00:23:59.312Z,0.00
2018-06-08T00:24:59.282Z,0.00
2018-06-08T00:25:59.258Z,0.00
2018-06-08T00:26:59.236Z,0.00
2018-06-08T00:27:59.216Z,1.06
2018-06-08T00:28:59.186Z,0.96
2018-06-08T00:29:59.170Z,3.36
2018-06-08T00:30:59.135Z,2.40
2018-06-08T00:31:59.114Z,1.73
2018-06-08T00:32:59.101Z,2.31
2018-06-08T00:33:59.065Z,1.15
2018-06-08T00:34:59.051Z,0.96
2018-06-08T00:35:59.029Z,0.67
2018-06-08T00:36:58.997Z,0.09
2018-06-08T00:37:58.979Z,0.00
2018-06-08T00:38:58.954Z,0.00
2018-06-08T00:39:58.932Z,0.00
2018-06-08T00:40:58.909Z,0.00
2018-06-08T00:41:58.884Z,0.00
2018-06-08T00:42:58.858Z,0.00
2018-06-08T00:43:58.836Z,0.00
2018-06-08T00:44:58.809Z,0.00
2018-06-08T00:45:58.783Z,0.00
2018-06-08T00:46:58.774Z,0.00
2018-06-08T00:47:58.738Z,0.00
2018-06-08T00:48:58.717Z,0.00
2018-06-08T00:49:58.696Z,0.00
2018-06-08T00:50:58.664Z,0.00
2018-06-08T00:51:58.650Z,0.00
2018-06-08T00:52:58.620Z,0.00
2018-06-08T00:53:58.606Z,0.00
2018-06-08T00:54:58.572Z,0.00
2018-06-08T00:55:58.548Z,0.00
2018-06-08T00:56:58.531Z,0.00
2018-06-08T00:57:58.504Z,0.00
2018-06-08T00:58:58.495Z,0.00
2018-06-08T00:59:58.452Z,0.00
2018-06-08T01:00:58.433Z,0.00
2018-06-08T01:01:58.407Z,0.00
2018-06-08T01:02:58.389Z,0.00
2018-06-08T01:03:58.364Z,1.54
2018-06-08T01:04:58.334Z,3.94
2018-06-08T01:05:58.319Z,3.75
2018-06-08T01:06:58.294Z,6.82
2018-06-08T01:07:58.264Z,7.31
2018-06-08T01:08:58.249Z,5.38
2018-06-08T01:09:58.224Z,5.29
2018-06-08T01:10:58.193Z,5.00
2018-06-08T01:11:58.178Z,4.42
2018-06-08T01:12:58.150Z,4.52
2018-06-08T01:13:58.126Z,5.09
2018-06-08T01:14:58.106Z,3.55
2018-06-08T01:15:58.083Z,5.86
2018-06-08T01:16:58.058Z,6.15
2018-06-08T01:17:58.032Z,5.38
2018-06-08T01:18:58.011Z,3.46
2018-06-08T01:19:57.986Z,2.98
2018-06-08T01:20:57.969Z,3.46
2018-06-08T01:21:57.940Z,2.50
2018-06-08T01:22:57.918Z,2.01
2018-06-08T01:23:57.895Z,3.65
2018-06-08T01:24:57.888Z,3.46
2018-06-08T01:25:57.868Z,2.69
2018-06-08T01:26:57.821Z,2.01
2018-06-08T01:27:57.792Z,0.86
2018-06-08T01:28:57.777Z,1.15
2018-06-08T01:29:57.751Z,1.06
2018-06-08T01:30:57.721Z,0.48
2018-06-08T01:31:57.707Z,0.77
2018-06-08T01:32:57.678Z,0.29
2018-06-08T01:33:57.652Z,0.19
2018-06-08T01:34:57.637Z,0.00
2018-06-08T01:35:57.604Z,0.00
2018-06-08T01:36:57.589Z,0.00
2018-06-08T01:37:57.566Z,0.00
2018-06-08T01:38:57.533Z,0.00
2018-06-08T01:39:57.513Z,0.00
2018-06-08T01:40:57.512Z,0.00
2018-06-08T01:41:57.468Z,0.00
2018-06-08T01:42:57.439Z,0.00
2018-06-08T01:43:57.417Z,0.00
2018-06-08T01:44:57.397Z,0.00
2018-06-08T01:45:57.369Z,0.00
2018-06-08T01:46:57.351Z,0.00
2018-06-08T01:47:57.333Z,0.77
2018-06-08T01:48:57.300Z,0.19
2018-06-08T01:49:57.282Z,0.00
2018-06-08T01:50:57.249Z,0.48
2018-06-08T01:51:57.227Z,0.48
2018-06-08T01:52:57.211Z,0.00
2018-06-08T01:53:57.187Z,0.00
2018-06-08T01:54:57.163Z,0.00
2018-06-08T01:55:57.140Z,0.00
2018-06-08T01:56:57.117Z,0.00
2018-06-08T01:57:57.094Z,0.00
2018-06-08T01:58:57.069Z,0.00
2018-06-08T01:59:57.044Z,0.00
2018-06-08T02:00:57.023Z,0.00
2018-06-08T02:01:56.996Z,0.00
2018-06-08T02:02:56.971Z,0.00
2018-06-08T02:03:56.951Z,0.00
2018-06-08T02:04:56.923Z,0.00
2018-06-08T02:05:56.904Z,0.00
2018-06-08T02:06:56.881Z,1.73
2018-06-08T02:07:56.857Z,1.06
2018-06-08T02:08:56.830Z,2.40
2018-06-08T02:09:56.816Z,1.73
2018-06-08T02:10:56.785Z,1.73
2018-06-08T02:11:56.762Z,1.73
2018-06-08T02:12:56.736Z,3.08
2018-06-08T02:13:56.715Z,3.75
2018-06-08T02:14:56.695Z,5.19
2018-06-08T02:15:56.665Z,5.86
2018-06-08T02:16:56.647Z,10.77
2018-06-08T02:17:56.618Z,12.78
2018-06-08T02:18:56.610Z,9.90
2018-06-08T02:19:56.578Z,7.31
2018-06-08T02:20:56.551Z,7.59
2018-06-08T02:21:56.531Z,5.76
2018-06-08T02:22:56.505Z,5.96
2018-06-08T02:23:56.475Z,6.15
2018-06-08T02:24:56.459Z,6.15
2018-06-08T02:25:56.432Z,6.24
2018-06-08T02:26:56.412Z,5.00
2018-06-08T02:27:56.382Z,4.13
2018-06-08T02:28:56.362Z,4.13
2018-06-08T02:29:56.345Z,3.55
2018-06-08T02:30:56.311Z,2.59
2018-06-08T02:31:56.294Z,2.69
2018-06-08T02:32:56.269Z,1.92
2018-06-08T02:33:56.243Z,1.54
2018-06-08T02:34:56.225Z,1.06
2018-06-08T02:35:56.201Z,0.48
2018-06-08T02:36:56.174Z,0.00
2018-06-08T02:37:56.149Z,0.48
2018-06-08T02:38:56.133Z,0.00
2018-06-08T02:39:56.104Z,0.00
2018-06-08T02:40:56.083Z,0.00
2018-06-08T02:41:56.063Z,0.00
2018-06-08T02:42:56.035Z,0.00
2018-06-08T02:43:56.010Z,0.00
2018-06-08T02:44:55.981Z,0.00
2018-06-08T02:45:55.966Z,0.00
2018-06-08T02:46:55.934Z,0.00
2018-06-08T02:47:55.914Z,0.00
2018-06-08T02:48:55.893Z,0.00
2018-06-08T02:49:55.867Z,0.00
2018-06-08T02:50:55.844Z,0.00
2018-06-08T02:51:55.824Z,0.00
2018-06-08T02:52:55.792Z,0.00
2018-06-08T02:53:55.776Z,0.00
2018-06-08T02:54:55.745Z,0.00
2018-06-08T02:55:55.724Z,0.00
2018-06-08T02:56:55.705Z,0.00
2018-06-08T02:57:55.695Z,0.00
2018-06-08T02:58:55.680Z,0.00
2018-06-08T02:59:55.678Z,0.00
2018-06-08T03:00:55.602Z,0.38
2018-06-08T03:01:55.588Z,0.77
2018-06-08T03:02:55.557Z,1.25
2018-06-08T03:03:55.540Z,2.11
2018-06-08T03:04:55.518Z,3.55
2018-06-08T03:05:55.488Z,4.32
2018-06-08T03:06:55.473Z,3.46
2018-06-08T03:07:55.440Z,3.46
2018-06-08T03:08:55.419Z,5.09
2018-06-08T03:09:55.395Z,5.47
2018-06-08T03:10:55.377Z,4.61
2018-06-08T03:11:55.358Z,5.00
2018-06-08T03:12:55.321Z,4.03
2018-06-08T03:13:55.307Z,2.01
2018-06-08T03:14:55.282Z,4.32
2018-06-08T03:15:55.266Z,4.32
2018-06-08T03:16:55.232Z,2.78
2018-06-08T03:17:55.203Z,1.92
2018-06-08T03:18:55.188Z,1.54
2018-06-08T03:19:55.160Z,1.92
2018-06-08T03:20:55.142Z,2.11
2018-06-08T03:21:55.125Z,3.55
2018-06-08T03:22:55.092Z,2.88
2018-06-08T03:23:55.067Z,2.31
2018-06-08T03:24:55.041Z,2.50
2018-06-08T03:25:55.025Z,2.50
2018-06-08T03:26:54.992Z,3.75
2018-06-08T03:27:54.976Z,2.98
2018-06-08T03:28:54.948Z,2.50
2018-06-08T03:29:55.001Z,2.01
2018-06-08T03:30:54.905Z,2.31
2018-06-08T03:31:54.883Z,3.46
2018-06-08T03:32:54.857Z,2.59
2018-06-08T03:33:54.847Z,2.01
2018-06-08T03:34:54.806Z,1.34
2018-06-08T03:35:54.791Z,0.86
2018-06-08T03:36:54.762Z,0.38
2018-06-08T03:37:54.738Z,0.09
2018-06-08T03:38:54.719Z,0.00
2018-06-08T03:39:54.695Z,0.00
2018-06-08T03:40:54.673Z,0.00
2018-06-08T03:41:54.641Z,0.00
2018-06-08T03:42:54.619Z,0.00
2018-06-08T03:43:54.597Z,0.00
2018-06-08T03:44:54.574Z,0.96
2018-06-08T03:45:54.552Z,1.44
2018-06-08T03:46:54.530Z,2.40
2018-06-08T03:47:54.505Z,2.11
2018-06-08T03:48:54.505Z,4.23
2018-06-08T03:49:54.455Z,7.59
2018-06-08T03:50:54.440Z,6.54
2018-06-08T03:51:54.409Z,6.54
2018-06-08T03:52:54.389Z,5.29
2018-06-08T03:53:54.371Z,6.44
2018-06-08T03:54:54.380Z,5.77
2018-06-08T03:55:54.366Z,6.63
2018-06-08T03:56:54.288Z,7.78
2018-06-08T03:57:54.272Z,6.44
2018-06-08T03:58:54.246Z,6.73
2018-06-08T03:59:54.222Z,4.80
2018-06-08T04:00:54.198Z,5.38
2018-06-08T04:01:54.175Z,9.03
2018-06-08T04:02:54.149Z,10.57
2018-06-08T04:03:54.128Z,13.93
2018-06-08T04:04:54.105Z,10.77
2018-06-08T04:05:54.076Z,10.67
2018-06-08T04:06:54.058Z,9.03
2018-06-08T04:07:54.034Z,7.69
2018-06-08T04:08:54.008Z,6.73
2018-06-08T04:09:53.980Z,6.92
2018-06-08T04:10:53.968Z,9.23
2018-06-08T04:11:53.938Z,8.55
2018-06-08T04:12:53.913Z,8.55
2018-06-08T04:13:53.889Z,8.36
2018-06-08T04:14:53.871Z,10.57
2018-06-08T04:15:53.849Z,8.26
2018-06-08T04:16:53.855Z,8.46
2018-06-08T04:17:53.818Z,10.57
2018-06-08T04:18:53.774Z,9.03
2018-06-08T04:19:53.752Z,12.88
2018-06-08T04:20:53.725Z,12.01
2018-06-08T04:21:53.714Z,9.71
2018-06-08T04:22:53.805Z,8.36
2018-06-08T04:23:53.653Z,8.75
2018-06-08T04:24:53.651Z,7.21
2018-06-08T04:25:53.625Z,6.54
2018-06-08T04:26:53.604Z,6.54
2018-06-08T04:27:53.584Z,5.96
2018-06-08T04:28:53.541Z,7.79
2018-06-08T04:29:53.545Z,9.61
2018-06-08T04:30:53.503Z,12.60
2018-06-08T04:31:53.484Z,11.63
2018-06-08T04:32:53.458Z,11.54
2018-06-08T04:33:53.434Z,13.46
2018-06-08T04:34:53.431Z,11.73
2018-06-08T04:35:53.397Z,10.10
2018-06-08T04:36:53.360Z,11.06
2018-06-08T04:37:53.329Z,14.62
2018-06-08T04:38:53.306Z,11.15
2018-06-08T04:39:53.294Z,11.25
2018-06-08T04:40:53.273Z,9.61
2018-06-08T04:41:53.256Z,9.71
2018-06-08T04:42:53.233Z,10.38
2018-06-08T04:43:53.204Z,11.73
2018-06-08T04:44:53.167Z,12.79
2018-06-08T04:45:53.165Z,9.91
2018-06-08T04:46:53.137Z,10.68
2018-06-08T04:47:53.114Z,12.40
2018-06-08T04:48:53.090Z,11.15
2018-06-08T04:49:53.049Z,9.42
2018-06-08T04:50:53.042Z,8.46
2018-06-08T04:51:52.995Z,7.98
2018-06-08T04:52:52.980Z,8.17
2018-06-08T04:53:52.949Z,7.89
2018-06-08T04:54:52.934Z,6.54
2018-06-08T04:55:52.909Z,6.73
2018-06-08T04:56:52.878Z,5.68
2018-06-08T04:57:52.862Z,5.10
2018-06-08T04:58:52.836Z,5.29
2018-06-08T04:59:52.811Z,6.63
2018-06-08T05:00:52.788Z,6.54
2018-06-08T05:01:52.771Z,5.38
2018-06-08T05:02:52.744Z,5.38
2018-06-08T05:03:52.720Z,5.29
2018-06-08T05:04:52.699Z,4.61
2018-06-08T05:05:52.674Z,5.29
2018-06-08T05:06:52.650Z,5.29
2018-06-08T05:07:52.624Z,3.75
2018-06-08T05:08:52.607Z,2.88
2018-06-08T05:09:52.582Z,3.17
2018-06-08T05:10:52.553Z,3.46
2018-06-08T05:11:52.536Z,2.69
2018-06-08T05:12:52.509Z,1.64
2018-06-08T05:13:52.485Z,2.40
2018-06-08T05:14:52.463Z,5.87
2018-06-08T05:15:52.446Z,14.91
2018-06-08T05:16:52.414Z,15.78
2018-06-08T05:17:52.391Z,11.35
2018-06-08T05:18:52.370Z,12.60
2018-06-08T05:19:52.342Z,12.89
2018-06-08T05:20:52.326Z,9.62
2018-06-08T05:21:52.308Z,10.00
2018-06-08T05:22:52.273Z,9.52
2018-06-08T05:23:52.256Z,8.37
2018-06-08T05:24:52.229Z,6.83
2018-06-08T05:25:52.213Z,7.41
2018-06-08T05:26:52.178Z,7.99
2018-06-08T05:27:52.158Z,7.03
2018-06-08T05:28:52.140Z,5.96
2018-06-08T05:29:52.131Z,4.91
2018-06-08T05:30:52.095Z,5.87
2018-06-08T05:31:52.081Z,5.10
2018-06-08T05:32:52.041Z,6.55
2018-06-08T05:33:52.021Z,6.45
2018-06-08T05:34:51.996Z,10.02
2018-06-08T05:35:51.969Z,10.98
2018-06-08T05:36:51.956Z,11.46
2018-06-08T05:37:51.924Z,10.98
2018-06-08T05:38:51.905Z,10.20
2018-06-08T05:39:51.877Z,8.28
2018-06-08T05:40:51.862Z,10.21
2018-06-08T05:41:51.833Z,10.88
2018-06-08T05:42:51.846Z,9.72
2018-06-08T05:43:51.792Z,11.27
2018-06-08T05:44:51.761Z,11.55
2018-06-08T05:45:51.755Z,18.88
2018-06-08T05:46:51.714Z,18.48
2018-06-08T05:47:51.700Z,22.62
2018-06-08T05:48:51.676Z,16.46
2018-06-08T05:49:51.646Z,12.04
2018-06-08T05:50:51.621Z,9.82
2018-06-08T05:51:51.604Z,21.48
2018-06-08T05:52:51.585Z,19.93
2018-06-08T05:53:51.552Z,16.66
2018-06-08T05:54:51.540Z,25.51
2018-06-08T05:55:51.515Z,20.32
2018-06-08T05:56:51.482Z,15.80
2018-06-08T05:57:51.470Z,15.31
2018-06-08T05:58:51.438Z,18.68
2018-06-08T05:59:51.415Z,16.56
2018-06-08T06:00:51.401Z,15.50
2018-06-08T06:01:51.370Z,13.87
2018-06-08T06:02:51.353Z,18.59
2018-06-08T06:03:51.328Z,26.00
2018-06-08T06:04:51.307Z,20.23
2018-06-08T06:05:51.279Z,29.66
2018-06-08T06:06:51.255Z,28.13
2018-06-08T06:07:51.236Z,31.11
2018-06-08T06:08:51.213Z,32.56
2018-06-08T06:09:51.189Z,37.95
2018-06-08T06:10:51.167Z,29.47
2018-06-08T06:11:51.148Z,25.33
2018-06-08T06:12:51.119Z,29.66
2018-06-08T06:13:51.095Z,29.66
2018-06-08T06:14:51.098Z,31.30
2018-06-08T06:15:51.053Z,26.39
2018-06-08T06:16:51.028Z,24.85
2018-06-08T06:17:51.012Z,22.83
2018-06-08T06:18:50.981Z,25.52
2018-06-08T06:19:50.966Z,31.60
2018-06-08T06:20:50.988Z,26.11
2018-06-08T06:21:50.912Z,29.00
2018-06-08T06:22:50.896Z,33.53
2018-06-08T06:23:50.865Z,28.91
2018-06-08T06:24:50.850Z,31.41
2018-06-08T06:25:50.822Z,35.75
2018-06-08T06:26:50.807Z,33.44
2018-06-08T06:27:50.779Z,32.09
2018-06-08T06:28:50.748Z,39.99
2018-06-08T06:29:50.738Z,33.34
2018-06-08T06:30:50.701Z,33.34
2018-06-08T06:31:50.679Z,34.78
2018-06-08T06:32:50.663Z,34.69
2018-06-08T06:33:50.631Z,41.82
2018-06-08T06:34:50.620Z,51.17
2018-06-08T06:35:50.592Z,44.04
2018-06-08T06:36:50.566Z,41.34
2018-06-08T06:37:50.548Z,42.49
2018-06-08T06:38:50.519Z,44.13
2018-06-08T06:39:50.496Z,42.30
2018-06-08T06:40:50.477Z,44.23
2018-06-08T06:41:50.451Z,50.69
2018-06-08T06:42:50.431Z,46.45
2018-06-08T06:43:50.409Z,47.99
2018-06-08T06:44:50.402Z,52.71
2018-06-08T06:45:50.362Z,54.74
2018-06-08T06:46:50.335Z,54.25
2018-06-08T06:47:50.315Z,58.04
2018-06-08T06:48:50.299Z,54.96
2018-06-08T06:49:50.266Z,58.78
2018-06-08T06:50:50.247Z,57.27
2018-06-08T06:51:50.221Z,56.88
2018-06-08T06:52:50.195Z,57.65
2018-06-08T06:53:50.179Z,58.42
2018-06-08T06:54:50.152Z,58.62
2018-06-08T06:55:50.133Z,60.06
2018-06-08T06:56:50.158Z,64.11
2018-06-08T06:57:50.081Z,64.59
2018-06-08T06:58:50.070Z,66.43
2018-06-08T06:59:50.038Z,67.00
2018-06-08T07:00:50.018Z,65.85
2018-06-08T07:01:49.999Z,62.57
2018-06-08T07:02:49.967Z,60.16
2018-06-08T07:03:49.948Z,64.89
2018-06-08T07:04:49.925Z,61.51
2018-06-08T07:05:49.900Z,54.09
2018-06-08T07:06:49.883Z,55.56
2018-06-08T07:07:49.857Z,58.26
2018-06-08T07:08:49.839Z,62.89
2018-06-08T07:09:49.808Z,58.55
2018-06-08T07:10:49.792Z,61.35
2018-06-08T07:11:49.762Z,58.94
2018-06-08T07:12:49.762Z,60.96
2018-06-08T07:13:49.723Z,60.51
2018-06-08T07:14:49.697Z,67.62
2018-06-08T07:15:49.674Z,69.07
2018-06-08T07:16:49.649Z,75.92
2018-06-08T07:17:49.624Z,68.49
2018-06-08T07:18:49.691Z,65.30
2018-06-08T07:19:49.582Z,63.28
2018-06-08T07:20:49.560Z,69.26
2018-06-08T07:21:49.535Z,66.27
2018-06-08T07:22:49.517Z,64.72
2018-06-08T07:23:49.496Z,72.00
2018-06-08T07:24:49.526Z,73.60
2018-06-08T07:25:49.456Z,72.25
2018-06-08T07:26:49.430Z,69.93
2018-06-08T07:27:49.395Z,71.12
2018-06-08T07:28:49.383Z,69.78
2018-06-08T07:29:49.355Z,72.38
2018-06-08T07:30:49.340Z,69.97
2018-06-08T07:31:49.414Z,72.19
2018-06-08T07:32:49.287Z,69.97
2018-06-08T07:33:49.260Z,71.42
2018-06-08T07:34:49.241Z,73.63
2018-06-08T07:35:49.218Z,72.48
2018-06-08T07:36:49.194Z,74.12
2018-06-08T07:37:49.180Z,80.10
2018-06-08T07:38:49.173Z,76.53
2018-06-08T07:39:49.142Z,76.50
2018-06-08T07:40:49.104Z,76.50
2018-06-08T07:41:49.084Z,74.37
2018-06-08T07:42:49.059Z,78.81
2018-06-08T07:43:49.043Z,76.01
2018-06-08T07:44:49.010Z,77.07
2018-06-08T07:45:48.989Z,76.68
2018-06-08T07:46:49.001Z,84.01
2018-06-08T07:47:48.941Z,78.09
2018-06-08T07:48:48.931Z,78.77
2018-06-08T07:49:48.895Z,77.90
2018-06-08T07:50:48.882Z,76.93
2018-06-08T07:51:48.864Z,76.65
2018-06-08T07:52:48.833Z,77.46
2018-06-08T07:53:48.849Z,81.66
2018-06-08T07:54:48.789Z,79.35
2018-06-08T07:55:48.827Z,79.25
2018-06-08T07:56:48.746Z,77.33
2018-06-08T07:57:48.728Z,82.34
2018-06-08T07:58:48.713Z,75.30
2018-06-08T07:59:48.704Z,76.75
2018-06-08T08:00:48.670Z,80.79
2018-06-08T08:01:48.642Z,76.55
2018-06-08T08:02:48.626Z,72.99
2018-06-08T08:03:48.604Z,72.12
2018-06-08T08:04:48.554Z,74.62
2018-06-08T08:05:48.563Z,72.89
2018-06-08T08:06:48.550Z,77.23
2018-06-08T08:07:48.485Z,77.23
2018-06-08T08:08:48.521Z,77.71
2018-06-08T08:09:48.457Z,78.77
2018-06-08T08:10:48.424Z,77.23
2018-06-08T08:11:48.412Z,79.16
2018-06-08T08:12:48.378Z,80.69
2018-06-08T08:13:48.357Z,80.89
2018-06-08T08:14:48.332Z,81.47
2018-06-08T08:15:48.309Z,79.16
2018-06-08T08:16:48.893Z,80.22
2018-06-08T08:17:48.488Z,79.74
2018-06-08T08:18:48.235Z,79.16
2018-06-08T08:19:48.307Z,79.35
2018-06-08T08:20:48.197Z,79.64
2018-06-08T08:21:48.197Z,78.77
2018-06-08T08:22:48.146Z,82.05
2018-06-08T08:23:48.125Z,81.09
2018-06-08T08:24:48.095Z,81.09
2018-06-08T08:25:48.100Z,79.10
2018-06-08T08:26:48.055Z,76.78
2018-06-08T08:27:48.037Z,79.68
2018-06-08T08:28:48.010Z,78.91
2018-06-08T08:29:47.983Z,81.02
2018-06-08T08:30:47.964Z,79.77
2018-06-08T08:31:47.955Z,80.26
2018-06-08T08:32:47.920Z,84.50
2018-06-08T08:33:47.902Z,81.32
2018-06-08T08:34:47.874Z,80.45
2018-06-08T08:35:47.855Z,84.41
2018-06-08T08:36:47.823Z,85.27
2018-06-08T08:37:47.801Z,82.76
2018-06-08T08:38:47.782Z,82.28
2018-06-08T08:39:47.755Z,84.01
2018-06-08T08:40:47.738Z,82.86
2018-06-08T08:41:47.717Z,82.38
2018-06-08T08:42:47.687Z,82.57
2018-06-08T08:43:47.661Z,83.34
2018-06-08T08:44:47.641Z,83.83
2018-06-08T08:45:47.683Z,83.63
2018-06-08T08:46:47.600Z,84.59
2018-06-08T08:47:47.580Z,84.89
2018-06-08T08:48:47.553Z,84.41
2018-06-08T08:49:47.527Z,84.11
2018-06-08T08:50:47.501Z,84.06
2018-06-08T08:51:47.605Z,85.12
2018-06-08T08:52:47.457Z,89.07
2018-06-08T08:53:47.440Z,85.99
2018-06-08T08:54:47.415Z,86.76
2018-06-08T08:55:47.389Z,85.80
2018-06-08T08:56:47.384Z,85.70
2018-06-08T08:57:47.344Z,86.18
2018-06-08T08:58:47.339Z,87.34
2018-06-08T08:59:47.304Z,84.74
2018-06-08T09:00:47.272Z,87.63
2018-06-08T09:01:47.267Z,85.99
2018-06-08T09:02:47.228Z,86.28
2018-06-08T09:03:47.213Z,85.41
2018-06-08T09:04:47.184Z,86.66
2018-06-08T09:05:47.159Z,84.25
2018-06-08T09:06:47.143Z,84.44
2018-06-08T09:07:47.120Z,83.87
2018-06-08T09:08:47.089Z,83.58
2018-06-08T09:09:47.069Z,82.81
2018-06-08T09:10:47.049Z,82.32
2018-06-08T09:11:47.021Z,82.61
2018-06-08T09:12:47.011Z,83.00
2018-06-08T09:13:46.980Z,83.77
2018-06-08T09:14:46.955Z,83.09
2018-06-08T09:15:46.929Z,84.83
2018-06-08T09:16:46.909Z,84.21
2018-06-08T09:17:46.914Z,84.79
2018-06-08T09:18:46.862Z,82.57
2018-06-08T09:19:46.846Z,83.15
2018-06-08T09:20:46.813Z,83.53
2018-06-08T09:21:46.798Z,84.41
2018-06-08T09:22:46.776Z,84.31
2018-06-08T09:23:46.747Z,83.83
2018-06-08T09:24:46.735Z,82.72
2018-06-08T09:25:46.710Z,82.05
2018-06-08T09:26:46.687Z,78.38
2018-06-08T09:27:46.675Z,75.55
2018-06-08T09:28:46.639Z,66.78
2018-06-08T09:29:46.611Z,57.14
2018-06-08T09:30:46.593Z,37.95
2018-06-08T09:31:46.565Z,24.66
2018-06-08T09:32:46.539Z,25.12
2018-06-08T09:33:46.522Z,13.96
2018-06-08T09:34:46.494Z,18.77
2018-06-08T09:35:46.477Z,22.81
2018-06-08T09:36:46.445Z,29.84
2018-06-08T09:37:46.424Z,32.90
2018-06-08T09:38:46.400Z,28.58
2018-06-08T09:39:46.378Z,24.15
2018-06-08T09:40:46.362Z,25.21
2018-06-08T09:41:46.333Z,21.94
2018-06-08T09:42:46.307Z,24.54
2018-06-08T09:43:46.289Z,22.69
2018-06-08T09:44:46.259Z,22.52
2018-06-08T09:45:46.238Z,20.30
2018-06-08T09:46:46.215Z,22.02
2018-06-08T09:47:46.189Z,18.85
2018-06-08T09:48:46.165Z,14.90
2018-06-08T09:49:46.237Z,14.04
2018-06-08T09:50:46.117Z,13.46
2018-06-08T09:51:46.107Z,11.63
2018-06-08T09:52:46.073Z,11.44
2018-06-08T09:53:46.044Z,10.38
2018-06-08T09:54:46.070Z,10.00
2018-06-08T09:55:45.999Z,9.04
2018-06-08T09:56:45.977Z,12.70
2018-06-08T09:57:45.955Z,13.93
2018-06-08T09:58:45.931Z,11.54
2018-06-08T09:59:45.907Z,10.96
2018-06-08T10:00:45.881Z,10.00
2018-06-08T10:01:45.858Z,11.24
2018-06-08T10:02:45.831Z,9.70
2018-06-08T10:03:45.806Z,8.94
2018-06-08T10:04:45.792Z,8.46
2018-06-08T10:05:45.764Z,6.63
2018-06-08T10:06:45.745Z,5.57
2018-06-08T10:07:45.717Z,5.38
2018-06-08T10:08:45.686Z,4.80
2018-06-08T10:09:45.671Z,3.85
2018-06-08T10:10:45.636Z,3.36
2018-06-08T10:11:45.628Z,2.31
2018-06-08T10:12:45.594Z,1.15
2018-06-08T10:13:45.573Z,0.67
2018-06-08T10:14:45.545Z,0.19
2018-06-08T10:15:45.522Z,0.00
2018-06-08T10:16:45.503Z,0.00
2018-06-08T10:17:45.475Z,0.00
2018-06-08T10:18:45.455Z,0.00
2018-06-08T10:19:45.434Z,0.00
2018-06-08T10:20:45.401Z,0.00
2018-06-08T10:21:45.383Z,0.00
2018-06-08T10:22:45.352Z,0.00
2018-06-08T10:23:45.329Z,0.00
2018-06-08T10:24:45.315Z,0.00
2018-06-08T10:25:45.282Z,0.00
2018-06-08T10:26:45.264Z,0.00
2018-06-08T10:27:45.240Z,0.00
2018-06-08T10:28:45.213Z,0.00
2018-06-08T10:29:45.193Z,0.00
2018-06-08T10:30:45.163Z,0.00
2018-06-08T10:31:45.141Z,0.00
2018-06-08T10:32:45.117Z,0.00
2018-06-08T10:33:45.093Z,0.00
2018-06-08T10:34:45.071Z,0.00
2018-06-08T10:35:45.047Z,0.00
2018-06-08T10:36:45.027Z,0.00
2018-06-08T10:37:44.999Z,0.00
2018-06-08T10:38:44.981Z,0.00
2018-06-08T10:39:44.957Z,0.00
2018-06-08T10:40:44.938Z,0.00
2018-06-08T10:41:44.915Z,0.00
2018-06-08T10:42:44.887Z,0.00
2018-06-08T10:43:44.855Z,0.00
2018-06-08T10:44:44.833Z,0.00
2018-06-08T10:45:44.810Z,0.00
2018-06-08T10:46:44.819Z,0.00
2018-06-08T10:47:44.765Z,0.00
2018-06-08T10:48:44.734Z,0.00
2018-06-08T10:49:44.711Z,0.00
2018-06-08T10:50:44.695Z,0.00
2018-06-08T10:51:44.672Z,0.00
2018-06-08T10:52:44.649Z,0.00
2018-06-08T10:53:44.617Z,0.00
2018-06-08T10:54:44.595Z,0.00
2018-06-08T10:55:44.567Z,0.00
2018-06-08T10:56:44.553Z,0.00
2018-06-08T10:57:44.522Z,0.00
2018-06-08T10:58:44.500Z,0.00
2018-06-08T10:59:44.470Z,0.00
2018-06-08T11:00:44.453Z,0.67
2018-06-08T11:01:44.424Z,0.57
2018-06-08T11:02:44.402Z,1.44
2018-06-08T11:03:44.380Z,1.15
2018-06-08T11:04:44.352Z,1.82
2018-06-08T11:05:44.326Z,3.46
2018-06-08T11:06:44.312Z,3.94
2018-06-08T11:07:44.291Z,4.23
2018-06-08T11:08:44.264Z,4.81
2018-06-08T11:09:44.237Z,5.29
2018-06-08T11:10:44.213Z,5.29
2018-06-08T11:11:44.193Z,5.87
2018-06-08T11:12:44.160Z,6.45
2018-06-08T11:13:44.137Z,6.63
2018-06-08T11:14:44.118Z,7.12
2018-06-08T11:15:44.097Z,8.18
2018-06-08T11:16:44.068Z,7.70
2018-06-08T11:17:44.048Z,7.70
2018-06-08T11:18:44.022Z,8.56
2018-06-08T11:19:43.997Z,10.00
2018-06-08T11:20:43.975Z,8.75
2018-06-08T11:21:43.957Z,6.45
2018-06-08T11:22:43.923Z,6.45
2018-06-08T11:23:43.904Z,7.02
2018-06-08T11:24:43.882Z,5.58
2018-06-08T11:25:43.857Z,3.66
2018-06-08T11:26:43.836Z,1.92
2018-06-08T11:27:43.813Z,3.08
2018-06-08T11:28:43.785Z,4.61
2018-06-08T11:29:43.763Z,6.35
2018-06-08T11:30:43.743Z,9.23
2018-06-08T11:31:43.719Z,8.95
2018-06-08T11:32:43.688Z,10.49
2018-06-08T11:33:43.666Z,11.06
2018-06-08T11:34:43.647Z,11.64
2018-06-08T11:35:43.617Z,12.70
2018-06-08T11:36:43.603Z,12.99
2018-06-08T11:37:43.575Z,8.47
2018-06-08T11:38:43.546Z,7.50
2018-06-08T11:39:43.527Z,5.77
2018-06-08T11:40:43.507Z,4.13
2018-06-08T11:41:43.476Z,7.02
2018-06-08T11:42:43.458Z,4.81
2018-06-08T11:43:43.429Z,5.49
2018-06-08T11:44:43.413Z,7.03
2018-06-08T11:45:43.391Z,7.22
2018-06-08T11:46:43.381Z,7.12
2018-06-08T11:47:43.336Z,5.68
2018-06-08T11:48:43.311Z,6.35
2018-06-08T11:49:43.291Z,6.74
2018-06-08T11:50:43.263Z,6.45
2018-06-08T11:51:43.241Z,5.77
2018-06-08T11:52:43.218Z,8.76
2018-06-08T11:53:43.192Z,16.08
2018-06-08T11:54:43.178Z,13.96
2018-06-08T11:55:43.154Z,10.88
2018-06-08T11:56:43.128Z,8.47
2018-06-08T11:57:43.109Z,15.80
2018-06-08T11:58:43.075Z,14.35
2018-06-08T11:59:43.048Z,14.64
2018-06-08T12:00:43.036Z,10.69
2018-06-08T12:01:43.032Z,19.55
2018-06-08T12:02:42.986Z,15.32
2018-06-08T12:03:42.967Z,15.99
2018-06-08T12:04:42.935Z,11.36
2018-06-08T12:05:42.921Z,12.62
2018-06-08T12:06:42.889Z,19.74
2018-06-08T12:07:42.864Z,20.90
2018-06-08T12:08:42.854Z,22.15
2018-06-08T12:09:42.821Z,20.70
2018-06-08T12:10:42.805Z,12.33
2018-06-08T12:11:42.780Z,8.95
2018-06-08T12:12:42.757Z,6.26
2018-06-08T12:13:42.730Z,3.85
2018-06-08T12:14:42.709Z,13.97
2018-06-08T12:15:42.685Z,18.88
2018-06-08T12:16:42.664Z,13.10
2018-06-08T12:17:42.645Z,18.02
2018-06-08T12:18:42.638Z,27.75
2018-06-08T12:19:42.593Z,26.59
2018-06-08T12:20:42.571Z,18.98
2018-06-08T12:21:42.547Z,18.12
2018-06-08T12:22:42.521Z,23.99
2018-06-08T12:23:42.499Z,24.48
2018-06-08T12:24:42.478Z,22.93
2018-06-08T12:25:42.454Z,23.71
2018-06-08T12:26:42.432Z,25.43
2018-06-08T12:27:42.412Z,27.16
2018-06-08T12:28:42.387Z,23.80
2018-06-08T12:29:42.370Z,19.45
2018-06-08T12:30:42.366Z,15.22
2018-06-08T12:31:42.309Z,15.22
2018-06-08T12:32:42.297Z,18.02
2018-06-08T12:33:42.279Z,19.27
2018-06-08T12:34:42.264Z,20.23
2018-06-08T12:35:42.228Z,16.47
2018-06-08T12:36:42.199Z,13.97
2018-06-08T12:37:42.173Z,14.56
2018-06-08T12:38:42.154Z,22.93
2018-06-08T12:39:42.125Z,24.87
2018-06-08T12:40:42.114Z,31.60
2018-06-08T12:41:42.079Z,35.27
2018-06-08T12:42:42.066Z,29.68
2018-06-08T12:43:42.041Z,33.63
2018-06-08T12:44:42.021Z,30.64
2018-06-08T12:45:41.996Z,28.14
2018-06-08T12:46:41.969Z,25.92
2018-06-08T12:47:41.947Z,19.67
2018-06-08T12:48:41.934Z,23.81
2018-06-08T12:49:41.900Z,22.09
2018-06-08T12:50:41.873Z,20.64
2018-06-08T12:51:41.858Z,29.61
2018-06-08T12:52:41.831Z,29.90
2018-06-08T12:53:41.816Z,22.38
2018-06-08T12:54:41.786Z,28.55
2018-06-08T12:55:41.774Z,29.32
2018-06-08T12:56:41.743Z,35.88
2018-06-08T12:57:41.732Z,32.23
2018-06-08T12:58:41.692Z,34.45
2018-06-08T12:59:41.673Z,41.11
2018-06-08T13:00:41.657Z,48.93
2018-06-08T13:01:41.630Z,43.81
2018-06-08T13:02:41.607Z,48.64
2018-06-08T13:03:41.587Z,54.14
2018-06-08T13:04:41.561Z,40.72
2018-06-08T13:05:41.545Z,49.70
2018-06-08T13:06:41.520Z,52.21